Time;durP1;ratioP1;P1;durP2;ratioP2;P2;SDS_P1;SDS_P2;PMS_P1;PMS_P2;Temp;Humidity;BMP_temperature;BMP_pressure;BME280_temperature;BME280_humidity;BME280_pressure;Samples;Min_cycle;Max_cycle;Signal;HPM_P1;HPM_P2
2022/09/05 00:01:06;;;;;;;3.08;2.33;;;18.40;99.90;;;;;;5053917;28;20107;-70
2022/09/05 00:03:48;;;;;;;3.15;2.47;;;18.30;99.90;;;;;;5052984;28;20099;-70
2022/09/05 00:06:16;;;;;;;4.45;2.70;;;18.30;99.90;;;;;;5053578;28;20037;-70
2022/09/05 00:08:51;;;;;;;4.30;2.30;;;18.30;99.90;;;;;;5069353;28;20546;-70
2022/09/05 00:11:31;;;;;;;2.90;2.25;;;18.30;99.90;;;;;;5073569;28;20048;-71
2022/09/05 00:14:27;;;;;;;4.80;2.20;;;18.30;99.90;;;;;;5071009;28;20131;-70
2022/09/05 00:17:06;;;;;;;3.72;2.70;;;18.20;99.90;;;;;;5057915;28;20055;-71
2022/09/05 00:19:50;;;;;;;3.33;2.50;;;18.20;99.90;;;;;;5073118;28;20036;-70
2022/09/05 00:22:28;;;;;;;4.90;2.80;;;18.20;99.90;;;;;;5073468;28;20128;-69
2022/09/05 00:24:53;;;;;;;4.55;2.90;;;18.20;99.90;;;;;;5072448;28;20437;-70
2022/09/05 00:27:38;;;;;;;3.75;2.65;;;18.10;99.90;;;;;;5072417;28;20044;-70
2022/09/05 00:30:16;;;;;;;4.53;2.67;;;18.10;99.90;;;;;;5072236;28;20045;-71
2022/09/05 00:32:44;;;;;;;3.42;2.97;;;18.00;99.90;;;;;;5072114;28;20054;-70
2022/09/05 00:35:18;;;;;;;3.60;3.00;;;18.00;99.90;;;;;;5072963;28;20485;-70
2022/09/05 00:37:47;;;;;;;3.72;2.80;;;18.00;99.90;;;;;;5071057;28;20473;-70
2022/09/05 00:40:28;;;;;;;4.05;3.20;;;18.00;99.90;;;;;;5072807;28;20527;-70
2022/09/05 00:43:02;;;;;;;3.85;3.28;;;18.00;99.90;;;;;;5071711;28;20044;-70
2022/09/05 00:45:36;;;;;;;3.72;2.80;;;18.00;99.90;;;;;;5073024;28;20080;-70
2022/09/05 00:48:22;;;;;;;3.00;2.70;;;17.90;99.90;;;;;;5071930;28;20385;-70
2022/09/05 00:50:59;;;;;;;3.30;2.90;;;17.90;99.90;;;;;;5071552;28;20387;-70
2022/09/05 00:53:38;;;;;;;3.30;2.95;;;17.80;99.90;;;;;;5072025;28;20048;-70
2022/09/05 00:56:46;;;;;;;4.28;2.72;;;17.80;99.90;;;;;;5072921;28;20431;-70
2022/09/05 00:59:45;;;;;;;3.25;2.90;;;17.70;99.90;;;;;;5065698;28;20087;-70
2022/09/05 01:02:17;;;;;;;4.20;3.17;;;17.70;99.90;;;;;;5071857;28;20123;-70
2022/09/05 01:05:03;;;;;;;3.58;2.95;;;17.60;99.90;;;;;;5071849;28;20459;-70
2022/09/05 01:07:59;;;;;;;4.03;3.08;;;17.50;99.90;;;;;;5071798;28;20072;-69
2022/09/05 01:10:45;;;;;;;4.45;2.80;;;17.40;99.90;;;;;;5071138;28;20551;-69
2022/09/05 01:13:20;;;;;;;3.25;2.90;;;17.30;99.90;;;;;;5072731;28;20037;-69
2022/09/05 01:16:16;;;;;;;3.22;2.90;;;17.20;99.90;;;;;;5072741;28;20052;-69
2022/09/05 01:18:48;;;;;;;3.33;2.85;;;17.20;99.90;;;;;;5038185;28;20377;-69
2022/09/05 01:21:43;;;;;;;3.55;3.20;;;17.10;99.90;;;;;;5071832;28;20041;-69
2022/09/05 01:24:17;;;;;;;5.07;3.00;;;17.10;99.90;;;;;;5071445;28;20139;-69
2022/09/05 01:26:58;;;;;;;3.90;3.28;;;17.10;99.90;;;;;;5071356;28;20052;-70
2022/09/05 01:29:42;;;;;;;3.78;3.30;;;17.10;99.90;;;;;;5072356;28;20385;-68
2022/09/05 01:32:16;;;;;;;3.20;2.88;;;17.10;99.90;;;;;;5071078;28;20376;-70
2022/09/05 01:35:16;;;;;;;3.65;3.22;;;17.10;99.90;;;;;;5071100;28;20457;-69
2022/09/05 01:38:05;;;;;;;4.50;3.63;;;17.10;99.90;;;;;;5071151;28;20040;-69
2022/09/05 01:40:52;;;;;;;3.42;3.13;;;17.10;99.90;;;;;;5071119;28;20385;-69
2022/09/05 01:43:24;;;;;;;4.95;3.42;;;17.10;99.90;;;;;;5072094;28;20047;-69
2022/09/05 01:46:27;;;;;;;4.85;3.70;;;17.10;99.90;;;;;;5069527;28;20340;-70
2022/09/05 01:49:25;;;;;;;4.82;4.43;;;17.10;99.90;;;;;;5065518;28;20155;-70
2022/09/05 01:52:15;;;;;;;4.15;3.47;;;17.10;99.90;;;;;;5051743;28;20485;-70
2022/09/05 01:55:06;;;;;;;3.67;3.35;;;17.10;99.90;;;;;;5059201;28;20123;-69
2022/09/05 01:57:45;;;;;;;4.32;3.70;;;17.00;99.90;;;;;;5071848;28;20102;-70
2022/09/05 02:00:22;;;;;;;4.25;3.85;;;16.90;99.90;;;;;;5069259;28;20048;-69
2022/09/05 02:03:19;;;;;;;3.92;3.30;;;16.90;99.90;;;;;;5070230;28;20067;-71
2022/09/05 02:06:09;;;;;;;4.65;3.90;;;16.80;99.90;;;;;;5050706;28;20056;-69
2022/09/05 02:09:04;;;;;;;5.55;3.85;;;16.80;99.90;;;;;;5058726;28;20481;-70
2022/09/05 02:12:00;;;;;;;4.25;3.63;;;16.70;99.90;;;;;;5070520;28;20350;-70
2022/09/05 02:14:44;;;;;;;4.55;3.80;;;16.70;99.90;;;;;;5070628;28;20090;-70
2022/09/05 02:17:18;;;;;;;4.32;3.53;;;16.70;99.90;;;;;;5069861;28;20059;-69
2022/09/05 02:19:57;;;;;;;4.35;3.30;;;16.70;99.90;;;;;;5063210;28;20048;-70
2022/09/05 02:22:33;;;;;;;4.20;3.80;;;16.70;99.90;;;;;;5071117;28;20377;-70
2022/09/05 02:25:15;;;;;;;4.72;3.70;;;16.70;99.90;;;;;;5070095;28;20053;-69
2022/09/05 02:27:51;;;;;;;4.30;3.90;;;16.80;99.90;;;;;;5071434;28;20045;-68
2022/09/05 02:30:20;;;;;;;4.03;3.63;;;16.80;99.90;;;;;;5071147;28;20043;-69
2022/09/05 02:33:09;;;;;;;5.22;4.30;;;16.70;99.90;;;;;;5071325;28;20157;-68
2022/09/05 02:35:34;;;;;;;4.03;3.63;;;16.70;99.90;;;;;;5071296;28;20109;-69
2022/09/05 02:38:10;;;;;;;4.30;3.85;;;16.60;99.90;;;;;;5070151;28;20131;-69
2022/09/05 02:40:53;;;;;;;4.10;3.70;;;16.60;99.90;;;;;;5071115;28;20048;-70
2022/09/05 02:43:25;;;;;;;4.85;3.95;;;16.60;99.90;;;;;;5069956;28;20052;-69
2022/09/05 02:45:58;;;;;;;4.25;3.85;;;16.50;99.90;;;;;;5070936;28;20457;-69
2022/09/05 02:48:59;;;;;;;4.70;4.07;;;16.50;99.90;;;;;;5069604;28;20045;-70
2022/09/05 02:51:36;;;;;;;5.35;4.30;;;16.50;99.90;;;;;;5055932;28;20081;-70
2022/09/05 02:54:08;;;;;;;4.07;3.67;;;16.40;99.90;;;;;;5070912;28;20106;-69
2022/09/05 02:57:01;;;;;;;4.75;3.95;;;16.40;99.90;;;;;;5069453;28;20048;-70
2022/09/05 03:00:03;;;;;;;4.35;3.85;;;16.40;99.90;;;;;;5069901;28;20060;-69
2022/09/05 03:03:09;;;;;;;4.60;4.20;;;16.40;99.90;;;;;;5069829;28;20127;-69
2022/09/05 03:06:03;;;;;;;4.75;4.25;;;16.40;99.90;;;;;;5070845;28;20044;-68
2022/09/05 03:08:31;;;;;;;4.30;3.90;;;16.40;99.90;;;;;;5071331;28;20051;-70
2022/09/05 03:11:16;;;;;;;4.45;4.05;;;16.40;99.90;;;;;;5069928;28;20116;-69
2022/09/05 03:14:05;;;;;;;5.53;4.20;;;16.40;99.90;;;;;;5068613;28;20124;-69
2022/09/05 03:16:49;;;;;;;4.03;3.67;;;16.40;99.90;;;;;;5063721;28;20052;-69
2022/09/05 03:19:43;;;;;;;4.22;3.80;;;16.40;99.90;;;;;;5069239;28;20056;-69
2022/09/05 03:22:39;;;;;;;5.38;4.13;;;16.40;99.90;;;;;;5070737;28;20407;-69
2022/09/05 03:25:22;;;;;;;4.68;3.97;;;16.40;99.90;;;;;;5071584;28;20040;-69
2022/09/05 03:28:13;;;;;;;4.43;4.03;;;16.30;99.90;;;;;;5074545;28;20041;-70
2022/09/05 03:31:17;;;;;;;4.75;3.83;;;16.30;99.90;;;;;;5074376;28;20044;-69
2022/09/05 03:34:00;;;;;;;4.68;4.00;;;16.30;99.90;;;;;;5062805;28;20507;-69
2022/09/05 03:36:35;;;;;;;4.53;4.13;;;16.30;99.90;;;;;;5073435;28;20060;-69
2022/09/05 03:39:18;;;;;;;4.40;4.00;;;16.30;99.90;;;;;;5071187;28;20131;-69
2022/09/05 03:42:03;;;;;;;4.50;4.10;;;16.20;99.90;;;;;;5057875;28;20036;-71
2022/09/05 03:44:58;;;;;;;4.32;3.92;;;16.10;99.90;;;;;;5074310;28;20064;-70
2022/09/05 03:47:42;;;;;;;4.28;3.88;;;16.00;99.90;;;;;;5073996;28;20049;-69
2022/09/05 03:50:49;;;;;;;4.38;3.80;;;16.00;99.90;;;;;;5072462;28;20055;-69
2022/09/05 03:53:41;;;;;;;;;;;15.90;99.90;;;;;;5073447;28;20127;-71
2022/09/05 03:56:27;;;;;;;4.95;4.43;;;15.80;99.90;;;;;;5071959;28;20007;-70
2022/09/05 03:59:15;;;;;;;5.00;4.07;;;15.80;99.90;;;;;;5056648;28;20141;-69
2022/09/05 04:01:46;;;;;;;4.47;4.03;;;15.90;99.90;;;;;;5072763;28;20048;-69
2022/09/05 04:04:42;;;;;;;6.03;4.28;;;15.90;99.90;;;;;;5072989;28;20131;-70
2022/09/05 04:07:48;;;;;;;5.88;4.55;;;15.90;99.90;;;;;;5074032;28;20083;-69
2022/09/05 04:10:22;;;;;;;4.68;4.28;;;15.90;99.90;;;;;;5071363;28;20135;-69
2022/09/05 04:13:18;;;;;;;4.70;4.13;;;15.90;99.90;;;;;;5072554;28;20052;-69
2022/09/05 04:15:49;;;;;;;5.57;3.85;;;15.80;99.90;;;;;;5073875;28;20445;-68
2022/09/05 04:18:17;;;;;;;4.63;4.03;;;15.70;99.90;;;;;;5073815;28;20127;-69
2022/09/05 04:20:54;;;;;;;4.72;4.28;;;15.60;99.90;;;;;;5073272;28;20079;-70
2022/09/05 04:23:50;;;;;;;5.18;4.32;;;15.50;99.90;;;;;;5073471;28;20053;-69
2022/09/05 04:26:41;;;;;;;6.43;3.92;;;15.50;99.90;;;;;;5071968;28;20040;-70
2022/09/05 04:29:52;;;;;;;4.20;3.70;;;15.40;99.90;;;;;;5055494;28;20063;-70
2022/09/05 04:32:18;;;;;;;5.20;4.45;;;15.40;99.90;;;;;;5061481;28;20076;-70
2022/09/05 04:35:21;;;;;;;5.43;4.40;;;15.40;99.90;;;;;;5073314;28;20044;-70
2022/09/05 04:37:55;;;;;;;4.93;4.47;;;15.40;99.90;;;;;;5072285;28;20048;-70
2022/09/05 04:40:32;;;;;;;6.00;4.80;;;15.40;99.90;;;;;;5072027;28;20102;-71
2022/09/05 04:43:03;;;;;;;5.53;4.88;;;15.40;99.90;;;;;;5073143;28;20068;-71
2022/09/05 04:45:35;;;;;;;5.25;4.75;;;15.40;99.90;;;;;;5073220;28;20080;-70
2022/09/05 04:48:06;;;;;;;5.25;4.75;;;15.40;99.90;;;;;;5073210;28;20044;-70
2022/09/05 04:50:32;;;;;;;5.57;4.97;;;15.30;99.90;;;;;;5072833;28;20467;-70
2022/09/05 04:53:25;;;;;;;5.97;5.18;;;15.30;99.90;;;;;;5072085;28;20254;-71
2022/09/05 04:55:56;;;;;;;5.53;4.35;;;15.30;99.90;;;;;;5072460;28;20497;-70
2022/09/05 04:58:41;;;;;;;5.78;5.00;;;15.30;99.90;;;;;;5072458;28;20501;-70
2022/09/05 05:01:18;;;;;;;5.75;4.88;;;15.30;99.90;;;;;;5070053;28;20041;-70
2022/09/05 05:03:44;;;;;;;6.25;5.60;;;15.20;99.90;;;;;;5072889;28;20457;-70
2022/09/05 05:06:33;;;;;;;7.00;5.25;;;15.20;99.90;;;;;;5072797;28;20044;-70
2022/09/05 05:09:23;;;;;;;5.75;5.07;;;15.20;99.90;;;;;;5072733;28;20040;-70
2022/09/05 05:12:01;;;;;;;5.68;5.07;;;15.20;99.90;;;;;;5072744;28;20041;-70
2022/09/05 05:15:05;;;;;;;5.20;4.70;;;15.20;99.90;;;;;;5072433;28;20052;-71
2022/09/05 05:17:44;;;;;;;5.35;4.68;;;15.20;99.90;;;;;;5065275;28;20071;-69
2022/09/05 05:20:31;;;;;;;5.38;4.88;;;15.20;99.90;;;;;;5071927;28;20072;-71
2022/09/05 05:23:01;;;;;;;5.45;4.95;;;15.10;99.90;;;;;;5070996;28;20039;-70
2022/09/05 05:25:31;;;;;;;5.10;4.60;;;15.10;99.90;;;;;;5072230;28;20534;-70
2022/09/05 05:28:25;;;;;;;5.97;5.30;;;15.20;99.90;;;;;;5072255;28;20080;-70
2022/09/05 05:30:53;;;;;;;5.68;5.18;;;15.20;99.90;;;;;;5063802;28;20106;-70
2022/09/05 05:33:33;;;;;;;5.78;5.28;;;15.30;99.90;;;;;;5072113;28;20040;-71
2022/09/05 05:36:01;;;;;;;6.03;4.85;;;15.30;99.90;;;;;;5072033;28;20036;-70
2022/09/05 05:38:47;;;;;;;6.18;5.18;;;15.20;99.90;;;;;;5071971;28;20054;-70
2022/09/05 05:41:13;;;;;;;;;;;15.20;99.90;;;;;;5072858;28;20040;-70
2022/09/05 05:43:41;;;;;;;5.50;5.00;;;15.20;99.90;;;;;;5071209;28;19923;-70
2022/09/05 05:46:14;;;;;;;5.63;5.13;;;15.20;99.90;;;;;;5072001;28;20044;-70
2022/09/05 05:48:43;;;;;;;6.10;5.28;;;15.20;99.90;;;;;;5053685;28;20049;-70
2022/09/05 05:51:44;;;;;;;5.88;5.28;;;15.20;99.90;;;;;;5070357;28;20044;-70
2022/09/05 05:54:48;;;;;;;6.88;5.70;;;15.30;99.90;;;;;;5070970;28;20157;-70
2022/09/05 05:57:28;;;;;;;6.60;6.00;;;15.30;99.90;;;;;;5070507;28;20135;-70
2022/09/05 06:00:03;;;;;;;6.30;5.70;;;15.30;99.90;;;;;;5070810;28;20380;-70
2022/09/05 06:03:06;;;;;;;6.23;5.60;;;15.30;99.90;;;;;;5070367;28;20045;-70
2022/09/05 06:05:39;;;;;;;6.35;5.38;;;15.30;99.90;;;;;;5070465;28;20055;-70
2022/09/05 06:08:23;;;;;;;7.07;5.65;;;15.30;99.90;;;;;;5071390;28;20504;-70
2022/09/05 06:11:02;;;;;;;5.78;5.18;;;15.30;99.90;;;;;;5070087;28;20045;-70
2022/09/05 06:13:59;;;;;;;7.35;5.28;;;15.30;99.90;;;;;;5068822;28;20048;-63
2022/09/05 06:16:56;;;;;;;6.18;5.40;;;15.40;99.90;;;;;;5069528;28;20051;-63
2022/09/05 06:19:39;;;;;;;6.20;5.60;;;15.40;99.90;;;;;;5070764;28;20082;-63
2022/09/05 06:22:39;;;;;;;6.28;5.60;;;15.50;99.90;;;;;;5071396;28;20131;-62
2022/09/05 06:25:42;;;;;;;5.80;5.20;;;15.70;99.90;;;;;;5071213;28;20381;-62
2022/09/05 06:28:16;;;;;;;6.05;5.45;;;15.90;99.90;;;;;;5071295;28;20057;-63
2022/09/05 06:30:50;;;;;;;5.95;5.35;;;16.10;99.90;;;;;;5071068;28;20032;-63
2022/09/05 06:33:20;;;;;;;6.00;5.40;;;16.30;99.90;;;;;;5071210;28;20044;-63
2022/09/05 06:36:42;;;;;;;7.03;5.97;;;16.40;99.90;;;;;;5071052;28;20092;-63
2022/09/05 06:39:26;;;;;;;6.53;5.93;;;16.60;99.90;;;;;;5033694;28;20066;-63
2022/09/05 06:42:03;;;;;;;6.20;5.60;;;16.80;99.90;;;;;;5070967;28;20442;-63
2022/09/05 06:44:39;;;;;;;8.35;5.75;;;16.90;99.90;;;;;;5071164;28;20049;-63
2022/09/05 06:47:17;;;;;;;6.43;5.50;;;17.10;99.90;;;;;;5071172;28;20128;-62
2022/09/05 06:50:02;;;;;;;6.20;5.60;;;17.20;99.90;;;;;;5050700;28;20045;-62
2022/09/05 06:52:52;;;;;;;5.65;5.05;;;17.40;99.90;;;;;;5051086;28;20068;-62
2022/09/05 06:55:26;;;;;;;6.47;5.88;;;17.50;99.90;;;;;;5051028;28;20057;-62
2022/09/05 06:58:10;;;;;;;6.97;5.65;;;17.70;99.90;;;;;;5049912;28;20454;-62
2022/09/05 07:00:56;;;;;;;5.80;5.30;;;17.90;99.90;;;;;;5054121;28;20052;-62
2022/09/05 07:03:55;;;;;;;7.13;5.72;;;18.00;99.90;;;;;;5054972;28;20051;-62
2022/09/05 07:06:49;;;;;;;6.40;5.70;;;18.10;99.90;;;;;;5060631;28;20392;-62
2022/09/05 07:09:46;;;;;;;7.15;5.18;;;18.30;99.90;;;;;;5072841;28;20203;-63
2022/09/05 07:12:21;;;;;;;6.53;5.93;;;18.50;99.90;;;;;;5074838;28;20051;-62
2022/09/05 07:14:53;;;;;;;5.45;4.95;;;18.60;99.90;;;;;;5074952;28;20037;-62
2022/09/05 07:17:38;;;;;;;5.32;4.82;;;18.70;99.90;;;;;;5073725;28;20095;-62
2022/09/05 07:20:17;;;;;;;6.18;5.00;;;18.90;99.90;;;;;;5074569;28;20052;-62
2022/09/05 07:22:53;;;;;;;5.00;4.50;;;19.10;99.90;;;;;;5074582;28;20044;-62
2022/09/05 07:25:21;;;;;;;;;;;19.20;99.90;;;;;;5074994;28;20119;-62
2022/09/05 07:27:55;;;;;;;5.55;4.90;;;19.30;99.90;;;;;;5074650;28;19916;-62
2022/09/05 07:30:21;;;;;;;5.50;4.68;;;19.40;99.90;;;;;;5072000;28;20044;-63
2022/09/05 07:33:00;;;;;;;5.60;4.38;;;19.60;99.90;;;;;;5075873;28;20044;-62
2022/09/05 07:35:28;;;;;;;6.55;4.53;;;19.70;99.90;;;;;;5074291;28;20053;-63
2022/09/05 07:38:12;;;;;;;5.75;4.40;;;19.80;99.90;;;;;;5067719;28;20055;-63
2022/09/05 07:40:44;;;;;;;6.13;4.88;;;20.00;99.90;;;;;;5073930;28;20045;-63
2022/09/05 07:43:18;;;;;;;9.48;4.50;;;20.00;99.90;;;;;;5072716;28;20083;-64
2022/09/05 07:46:03;;;;;;;6.97;4.30;;;20.10;99.90;;;;;;5071869;28;20135;-63
2022/09/05 07:48:35;;;;;;;5.35;4.10;;;20.30;99.90;;;;;;5081847;28;20046;-63
2022/09/05 07:51:05;;;;;;;4.65;4.15;;;20.40;99.90;;;;;;5073587;28;20040;-63
2022/09/05 07:53:31;;;;;;;4.47;4.07;;;20.50;99.90;;;;;;5073397;28;20389;-64
2022/09/05 07:56:01;;;;;;;4.88;4.38;;;20.60;99.90;;;;;;5073000;28;20067;-63
2022/09/05 07:58:49;;;;;;;4.35;3.95;;;20.80;99.90;;;;;;5071667;28;20128;-63
2022/09/05 08:01:18;;;;;;;5.70;3.88;;;20.90;99.90;;;;;;5072090;28;20051;-64
2022/09/05 08:03:44;;;;;;;5.82;3.83;;;21.00;99.90;;;;;;5072238;28;20051;-62
2022/09/05 08:06:17;;;;;;;4.25;3.58;;;21.10;99.90;;;;;;5072934;28;20080;-64
2022/09/05 08:08:59;;;;;;;7.50;3.85;;;21.30;99.90;;;;;;5072277;28;20044;-63
2022/09/05 08:11:29;;;;;;;4.90;3.70;;;21.40;99.90;;;;;;5071857;28;20052;-63
2022/09/05 08:14:04;;;;;;;5.25;3.70;;;21.50;99.90;;;;;;5072244;28;20041;-63
2022/09/05 08:16:33;;;;;;;5.38;3.97;;;21.60;99.90;;;;;;5072365;28;20389;-62
2022/09/05 08:19:36;;;;;;;4.60;3.72;;;21.70;99.90;;;;;;5072309;28;20049;-63
2022/09/05 08:22:03;;;;;;;4.88;4.18;;;21.80;99.90;;;;;;5070631;28;20066;-62
2022/09/05 08:24:35;;;;;;;5.63;3.75;;;21.90;99.90;;;;;;5071844;28;20048;-63
2022/09/05 08:27:09;;;;;;;8.90;4.45;;;21.90;99.90;;;;;;5071882;28;20052;-63
2022/09/05 08:29:44;;;;;;;6.47;3.80;;;22.00;99.90;;;;;;5071797;28;20044;-62
2022/09/05 08:32:43;;;;;;;5.10;4.03;;;22.10;99.90;;;;;;5072014;28;20091;-62
2022/09/05 08:35:16;;;;;;;6.82;3.70;;;22.30;99.90;;;;;;5063428;28;20497;-62
2022/09/05 08:37:44;;;;;;;4.28;3.40;;;22.40;99.90;;;;;;5070658;28;20099;-62
2022/09/05 08:40:27;;;;;;;6.10;3.70;;;22.50;99.90;;;;;;5072208;28;20083;-62
2022/09/05 08:43:04;;;;;;;3.58;3.22;;;22.60;99.90;;;;;;5071554;28;20048;-63
2022/09/05 08:45:38;;;;;;;4.65;3.20;;;22.80;99.90;;;;;;5071629;28;20480;-63
2022/09/05 08:48:13;;;;;;;3.90;3.35;;;22.90;99.90;;;;;;5071885;28;20048;-63
2022/09/05 08:51:00;;;;;;;6.55;3.85;;;23.10;99.90;;;;;;5071576;28;20053;-62
2022/09/05 08:53:46;;;;;;;3.80;3.20;;;23.20;99.90;;;;;;5071580;28;20052;-63
2022/09/05 08:56:22;;;;;;;4.60;3.97;;;23.30;99.90;;;;;;5027617;28;1247000;-63
2022/09/05 08:58:56;;;;;;;4.60;3.58;;;23.50;99.90;;;;;;5072661;28;20488;-62
2022/09/05 09:01:33;;;;;;;4.25;3.60;;;23.70;99.90;;;;;;5072471;28;20083;-63
2022/09/05 09:04:27;;;;;;;3.95;3.30;;;23.80;99.90;;;;;;5072511;28;20058;-63
2022/09/05 09:07:11;;;;;;;3.42;2.85;;;23.90;99.90;;;;;;5072343;28;20059;-63
2022/09/05 09:09:57;;;;;;;3.72;2.90;;;23.90;99.90;;;;;;5072918;28;20044;-63
2022/09/05 09:12:38;;;;;;;2.88;2.47;;;24.10;99.90;;;;;;5072457;28;20414;-62
2022/09/05 09:15:23;;;;;;;6.45;3.00;;;24.20;99.90;;;;;;5072159;28;20074;-62
2022/09/05 09:17:50;;;;;;;3.92;2.90;;;24.30;99.90;;;;;;5072156;28;20092;-61
2022/09/05 09:20:28;;;;;;;4.90;3.03;;;24.50;99.90;;;;;;5054177;28;20044;-61
2022/09/05 09:23:17;;;;;;;4.00;3.10;;;24.50;99.90;;;;;;5071022;28;20045;-61
2022/09/05 09:25:58;;;;;;;3.92;2.80;;;24.70;99.90;;;;;;5072609;28;20055;-62
2022/09/05 09:28:45;;;;;;;5.55;3.00;;;24.80;99.90;;;;;;5071166;28;20556;-63
2022/09/05 09:31:48;;;;;;;4.07;2.38;;;24.90;99.90;;;;;;5072088;28;20044;-61
2022/09/05 09:34:24;;;;;;;5.32;2.60;;;25.10;99.90;;;;;;5070804;28;20044;-61
2022/09/05 09:37:14;;;;;;;4.30;2.85;;;25.30;99.90;;;;;;5076922;28;20079;-61
2022/09/05 09:40:27;;;;;;;4.18;2.60;;;25.30;99.90;;;;;;5071754;28;20451;-61
2022/09/05 09:42:56;;;;;;;3.58;2.70;;;25.50;99.90;;;;;;5072315;28;20373;-61
2022/09/05 09:45:54;;;;;;;3.63;2.17;;;25.50;99.90;;;;;;5071395;28;20071;-61
2022/09/05 09:49:07;;;;;;;3.60;2.75;;;25.50;99.90;;;;;;5071871;28;20434;-61
2022/09/05 09:51:43;;;;;;;4.47;2.40;;;25.50;99.90;;;;;;5065505;28;20064;-62
2022/09/05 09:54:25;;;;;;;5.43;2.70;;;25.50;99.90;;;;;;5071625;28;20059;-62
2022/09/05 09:57:37;;;;;;;4.15;2.50;;;25.60;99.90;;;;;;5071786;28;20358;-62
2022/09/05 10:00:18;;;;;;;3.42;2.60;;;25.70;99.90;;;;;;5070292;28;20053;-62
2022/09/05 10:03:21;;;;;;;6.10;2.50;;;25.70;99.90;;;;;;5070221;28;20047;-62
2022/09/05 10:06:25;;;;;;;5.78;2.55;;;25.80;99.90;;;;;;5070706;28;20040;-62
2022/09/05 10:09:26;;;;;;;2.90;2.15;;;25.90;99.90;;;;;;5060559;28;20059;-62
2022/09/05 10:12:22;;;;;;;4.55;2.20;;;26.00;99.90;;;;;;5069810;28;20432;-61
2022/09/05 10:15:26;;;;;;;3.97;2.17;;;26.00;99.90;;;;;;5076901;28;20044;-62
2022/09/05 10:18:00;;;;;;;4.18;2.20;;;26.10;99.90;;;;;;5069841;28;20051;-61
2022/09/05 10:20:47;;;;;;;4.20;2.10;;;26.30;99.90;;;;;;5069038;28;20057;-61
2022/09/05 10:23:30;;;;;;;4.65;2.30;;;26.40;99.90;;;;;;5070254;28;20040;-61
2022/09/05 10:26:21;;;;;;;2.97;2.20;;;26.50;99.90;;;;;;5070322;28;20040;-61
2022/09/05 10:28:55;;;;;;;2.85;2.10;;;26.50;99.90;;;;;;5069500;28;20047;-62
2022/09/05 10:31:55;;;;;;;3.58;2.17;;;26.50;99.90;;;;;;5067042;28;20368;-61
2022/09/05 10:34:24;;;;;;;2.60;2.13;;;26.60;99.90;;;;;;5062364;28;20052;-61
2022/09/05 10:37:01;;;;;;;3.10;2.05;;;26.50;99.90;;;;;;5069996;28;20120;-62
2022/09/05 10:39:31;;;;;;;4.20;2.58;;;26.40;99.90;;;;;;5068143;28;20465;-62
2022/09/05 10:42:10;;;;;;;3.58;2.33;;;26.40;99.90;;;;;;5070396;28;20366;-62
2022/09/05 10:44:49;;;;;;;3.72;1.77;;;26.30;99.90;;;;;;5070832;28;20041;-61
2022/09/05 10:47:19;;;;;;;3.35;2.00;;;26.30;99.90;;;;;;5070706;28;20049;-62
2022/09/05 10:49:49;;;;;;;3.65;2.00;;;26.30;99.90;;;;;;5070744;28;20036;-62
2022/09/05 10:52:20;;;;;;;3.75;1.90;;;26.50;99.90;;;;;;5071139;28;20123;-62
2022/09/05 10:55:04;;;;;;;2.30;1.90;;;26.50;99.90;;;;;;5070959;28;20059;-64
2022/09/05 10:57:53;;;;;;;3.45;1.90;;;26.60;99.90;;;;;;5071178;28;20056;-63
2022/09/05 11:00:50;;;;;;;2.40;1.80;;;26.60;99.90;;;;;;5071220;28;20434;-61
2022/09/05 11:03:25;;;;;;;2.63;1.80;;;26.70;99.90;;;;;;5070926;28;20048;-61
2022/09/05 11:05:57;;;;;;;2.15;1.60;;;26.70;99.90;;;;;;5071093;28;20526;-62
2022/09/05 11:08:36;;;;;;;2.10;1.58;;;26.80;99.90;;;;;;5070870;28;20032;-62
2022/09/05 11:11:12;;;;;;;3.92;1.77;;;26.90;99.90;;;;;;5070729;28;20048;-62
2022/09/05 11:13:48;;;;;;;;;;;27.00;99.90;;;;;;5071345;28;20041;-62
2022/09/05 11:16:44;;;;;;;2.00;1.60;;;27.00;99.90;;;;;;5070540;28;20260;-62
2022/09/05 11:19:46;;;;;;;2.27;1.87;;;27.00;99.90;;;;;;5067857;28;20069;-62
2022/09/05 11:22:14;;;;;;;2.58;1.65;;;27.00;99.90;;;;;;5069998;28;20110;-63
2022/09/05 11:24:58;;;;;;;2.53;1.40;;;27.10;99.90;;;;;;5067624;28;20036;-63
2022/09/05 11:27:40;;;;;;;2.45;1.70;;;27.10;99.90;;;;;;5068511;28;20378;-62
2022/09/05 11:30:12;;;;;;;3.30;1.63;;;27.10;99.90;;;;;;5068761;28;20045;-63
2022/09/05 11:32:56;;;;;;;3.45;1.70;;;27.10;99.90;;;;;;5070001;28;20033;-63
2022/09/05 11:35:27;;;;;;;2.30;1.80;;;27.20;99.90;;;;;;5067762;28;20036;-63
2022/09/05 11:38:08;;;;;;;2.65;1.80;;;27.30;99.90;;;;;;5070062;28;20045;-62
2022/09/05 11:41:04;;;;;;;2.70;1.88;;;27.20;99.90;;;;;;5070311;28;20036;-62
2022/09/05 11:44:00;;;;;;;2.97;1.50;;;27.30;99.90;;;;;;5068920;28;20075;-63
2022/09/05 11:46:46;;;;;;;2.00;1.50;;;27.30;99.90;;;;;;5070877;28;20052;-63
2022/09/05 11:49:12;;;;;;;1.90;1.30;;;27.40;99.90;;;;;;5072916;28;20154;-63
2022/09/05 11:52:15;;;;;;;3.03;1.52;;;27.40;99.90;;;;;;5070238;28;20111;-63
2022/09/05 11:55:07;;;;;;;4.50;1.70;;;27.40;99.90;;;;;;5071115;28;20044;-63
2022/09/05 11:58:02;;;;;;;2.10;1.48;;;27.40;99.90;;;;;;5073036;28;20131;-63
2022/09/05 12:00:56;;;;;;;2.22;1.42;;;27.40;99.90;;;;;;5071918;28;20115;-63
2022/09/05 12:03:54;;;;;;;1.92;1.33;;;27.50;99.90;;;;;;5071337;28;20036;-63
2022/09/05 12:06:44;;;;;;;2.10;1.30;;;27.60;99.90;;;;;;5073556;28;20316;-63
2022/09/05 12:09:35;;;;;;;2.15;1.38;;;27.70;99.90;;;;;;5073774;28;20389;-69
2022/09/05 12:12:15;;;;;;;3.35;1.55;;;27.70;99.90;;;;;;5073666;28;20400;-69
2022/09/05 12:14:49;;;;;;;2.58;1.42;;;27.80;99.90;;;;;;5072240;28;20484;-69
2022/09/05 12:17:50;;;;;;;2.15;1.65;;;27.80;99.90;;;;;;5073424;28;20051;-68
2022/09/05 12:20:36;;;;;;;2.10;1.42;;;27.90;99.90;;;;;;5072388;28;20448;-68
2022/09/05 12:23:25;;;;;;;4.40;1.52;;;27.90;99.90;;;;;;5073440;28;20102;-68
2022/09/05 12:25:56;;;;;;;1.80;1.20;;;28.00;99.90;;;;;;5052614;28;20100;-68
2022/09/05 12:28:46;;;;;;;1.90;1.33;;;28.10;99.90;;;;;;5072723;28;20052;-67
2022/09/05 12:31:20;;;;;;;2.25;1.40;;;28.10;99.90;;;;;;5072623;28;20048;-69
2022/09/05 12:33:50;;;;;;;2.27;1.20;;;28.00;99.90;;;;;;5073420;28;20067;-68
2022/09/05 12:36:38;;;;;;;2.85;1.35;;;27.90;99.90;;;;;;5073766;28;20048;-69
2022/09/05 12:39:24;;;;;;;1.80;1.13;;;27.80;99.90;;;;;;5073837;28;20097;-69
2022/09/05 12:42:08;;;;;;;2.10;1.35;;;27.80;99.90;;;;;;5073367;28;20594;-69
2022/09/05 12:44:54;;;;;;;2.47;1.40;;;27.80;99.90;;;;;;5073777;28;20105;-69
2022/09/05 12:47:22;;;;;;;;;;;27.70;99.90;;;;;;5073216;28;20143;-67
2022/09/05 12:50:16;;;;;;;2.65;1.30;;;27.50;99.90;;;;;;5087248;28;19916;-66
2022/09/05 12:52:45;;;;;;;1.80;1.25;;;27.40;99.90;;;;;;5073493;28;20048;-68
2022/09/05 12:55:21;;;;;;;1.90;1.25;;;27.40;99.90;;;;;;5071746;28;20048;-68
2022/09/05 12:57:54;;;;;;;2.13;1.40;;;27.30;99.90;;;;;;5071999;28;20049;-68
2022/09/05 13:00:21;;;;;;;2.05;1.50;;;27.30;99.90;;;;;;5073450;28;20044;-68
2022/09/05 13:03:02;;;;;;;3.25;1.55;;;27.40;99.90;;;;;;5070166;28;20045;-67
2022/09/05 13:06:03;;;;;;;3.17;1.50;;;27.50;99.90;;;;;;5052217;28;20052;-67
2022/09/05 13:08:46;;;;;;;2.42;1.40;;;27.50;99.90;;;;;;5072837;28;20559;-67
2022/09/05 13:11:14;;;;;;;1.88;1.50;;;27.40;99.90;;;;;;5071719;28;20119;-67
2022/09/05 13:13:46;;;;;;;1.90;1.40;;;27.40;99.90;;;;;;5072768;28;20087;-68
2022/09/05 13:16:19;;;;;;;2.53;1.40;;;27.40;99.90;;;;;;5072821;28;20044;-68
2022/09/05 13:18:46;;;;;;;2.22;1.40;;;27.40;99.90;;;;;;5072502;28;20120;-68
2022/09/05 13:21:21;;;;;;;2.95;1.48;;;27.40;99.90;;;;;;5072197;28;20084;-68
2022/09/05 13:24:00;;;;;;;;;;;27.40;99.90;;;;;;5073106;28;20044;-68
2022/09/05 13:26:41;;;;;;;2.67;1.23;;;27.30;99.90;;;;;;5072462;28;19920;-68
2022/09/05 13:29:20;;;;;;;2.40;1.55;;;27.40;99.90;;;;;;5071427;28;20098;-68
2022/09/05 13:31:52;;;;;;;2.60;1.40;;;27.40;99.90;;;;;;5072424;28;20041;-68
2022/09/05 13:34:21;;;;;;;1.88;1.48;;;27.30;99.90;;;;;;5072388;28;20372;-68
2022/09/05 13:37:15;;;;;;;2.28;1.70;;;27.30;99.90;;;;;;5070958;28;20407;-69
2022/09/05 13:40:02;;;;;;;2.00;1.42;;;27.20;99.90;;;;;;5069532;28;20056;-68
2022/09/05 13:42:34;;;;;;;2.85;1.30;;;27.10;99.90;;;;;;5070842;28;20489;-68
2022/09/05 13:45:01;;;;;;;2.22;1.40;;;27.10;99.90;;;;;;5072173;28;20084;-68
2022/09/05 13:47:42;;;;;;;2.10;1.40;;;27.10;99.90;;;;;;5070790;28;20044;-68
2022/09/05 13:50:30;;;;;;;1.63;1.20;;;27.10;99.90;;;;;;5070064;28;20052;-68
2022/09/05 13:53:09;;;;;;;2.85;1.20;;;27.10;99.90;;;;;;5071266;28;20119;-68
2022/09/05 13:55:52;;;;;;;2.83;1.35;;;27.00;99.90;;;;;;5070384;28;20077;-68
2022/09/05 13:58:27;;;;;;;1.70;1.10;;;27.00;99.90;;;;;;5071014;28;20051;-68
2022/09/05 14:01:23;;;;;;;2.50;1.30;;;26.90;99.90;;;;;;5070786;28;20072;-68
2022/09/05 14:03:58;;;;;;;1.98;1.50;;;26.90;99.90;;;;;;5070068;28;20127;-68
2022/09/05 14:06:34;;;;;;;2.65;1.35;;;27.00;99.90;;;;;;5071727;28;20080;-68